sensor_id;sensor_type;location;lat;lon;timestamp;P1;durP1;ratioP1;P2;durP2;ratioP2
36745;SDS011;22715;52.182;21.206;2023-04-24T00:00:16;6.07;;;5.13;;
36745;SDS011;22715;52.182;21.206;2023-04-24T00:02:42;7.47;;;4.93;;
36745;SDS011;22715;52.182;21.206;2023-04-24T00:05:11;6.55;;;4.40;;
36745;SDS011;22715;52.182;21.206;2023-04-24T00:07:45;8.10;;;5.40;;
36745;SDS011;22715;52.182;21.206;2023-04-24T00:10:11;10.27;;;6.30;;
36745;SDS011;22715;52.182;21.206;2023-04-24T00:12:36;11.38;;;6.25;;
36745;SDS011;22715;52.182;21.206;2023-04-24T00:15:09;8.20;;;5.38;;
36745;SDS011;22715;52.182;21.206;2023-04-24T00:17:34;10.75;;;6.25;;
36745;SDS011;22715;52.182;21.206;2023-04-24T00:19:59;7.55;;;5.47;;
36745;SDS011;22715;52.182;21.206;2023-04-24T00:22:26;10.65;;;5.90;;
36745;SDS011;22715;52.182;21.206;2023-04-24T00:24:51;6.28;;;5.03;;
36745;SDS011;22715;52.182;21.206;2023-04-24T00:27:17;7.22;;;5.13;;
36745;SDS011;22715;52.182;21.206;2023-04-24T00:29:42;9.90;;;6.07;;
36745;SDS011;22715;52.182;21.206;2023-04-24T00:32:08;10.57;;;5.55;;
36745;SDS011;22715;52.182;21.206;2023-04-24T00:34:33;8.60;;;6.13;;
36745;SDS011;22715;52.182;21.206;2023-04-24T00:36:58;8.13;;;5.53;;
36745;SDS011;22715;52.182;21.206;2023-04-24T00:39:24;8.40;;;5.00;;
36745;SDS011;22715;52.182;21.206;2023-04-24T00:41:50;7.97;;;5.65;;
36745;SDS011;22715;52.182;21.206;2023-04-24T00:44:33;8.13;;;5.95;;
36745;SDS011;22715;52.182;21.206;2023-04-24T00:47:00;6.53;;;4.88;;
36745;SDS011;22715;52.182;21.206;2023-04-24T00:49:25;7.25;;;5.97;;
36745;SDS011;22715;52.182;21.206;2023-04-24T00:51:51;8.75;;;5.90;;
36745;SDS011;22715;52.182;21.206;2023-04-24T00:54:20;8.43;;;5.50;;
36745;SDS011;22715;52.182;21.206;2023-04-24T00:56:45;8.75;;;6.22;;
36745;SDS011;22715;52.182;21.206;2023-04-24T00:59:15;7.18;;;5.65;;
36745;SDS011;22715;52.182;21.206;2023-04-24T01:04:07;8.43;;;6.03;;
36745;SDS011;22715;52.182;21.206;2023-04-24T01:06:37;9.70;;;5.90;;
36745;SDS011;22715;52.182;21.206;2023-04-24T01:09:18;9.40;;;5.40;;
36745;SDS011;22715;52.182;21.206;2023-04-24T01:11:43;7.80;;;5.97;;
36745;SDS011;22715;52.182;21.206;2023-04-24T01:14:21;8.27;;;6.10;;
36745;SDS011;22715;52.182;21.206;2023-04-24T01:16:50;6.10;;;5.05;;
36745;SDS011;22715;52.182;21.206;2023-04-24T01:19:15;7.65;;;5.70;;
36745;SDS011;22715;52.182;21.206;2023-04-24T01:24:18;7.43;;;5.18;;
36745;SDS011;22715;52.182;21.206;2023-04-24T01:26:44;7.38;;;5.20;;
36745;SDS011;22715;52.182;21.206;2023-04-24T01:29:19;9.25;;;7.18;;
36745;SDS011;22715;52.182;21.206;2023-04-24T01:31:50;9.15;;;6.00;;
36745;SDS011;22715;52.182;21.206;2023-04-24T01:36:47;6.25;;;4.80;;
36745;SDS011;22715;52.182;21.206;2023-04-24T01:39:22;9.07;;;5.95;;
36745;SDS011;22715;52.182;21.206;2023-04-24T01:41:51;8.32;;;6.70;;
36745;SDS011;22715;52.182;21.206;2023-04-24T01:44:17;8.40;;;6.90;;
36745;SDS011;22715;52.182;21.206;2023-04-24T01:46:42;7.80;;;5.85;;
36745;SDS011;22715;52.182;21.206;2023-04-24T01:49:08;10.38;;;6.25;;
36745;SDS011;22715;52.182;21.206;2023-04-24T01:51:38;10.30;;;6.97;;
36745;SDS011;22715;52.182;21.206;2023-04-24T01:54:04;11.50;;;6.30;;
36745;SDS011;22715;52.182;21.206;2023-04-24T01:56:32;7.43;;;6.55;;
36745;SDS011;22715;52.182;21.206;2023-04-24T01:58:58;12.32;;;6.93;;
36745;SDS011;22715;52.182;21.206;2023-04-24T02:09:28;11.05;;;6.75;;
36745;SDS011;22715;52.182;21.206;2023-04-24T02:11:54;9.93;;;6.78;;
36745;SDS011;22715;52.182;21.206;2023-04-24T02:14:28;10.07;;;7.10;;
36745;SDS011;22715;52.182;21.206;2023-04-24T02:16:57;12.57;;;7.05;;
36745;SDS011;22715;52.182;21.206;2023-04-24T02:19:23;10.20;;;6.97;;
36745;SDS011;22715;52.182;21.206;2023-04-24T02:21:48;10.40;;;6.75;;
36745;SDS011;22715;52.182;21.206;2023-04-24T02:24:14;9.13;;;5.78;;
36745;SDS011;22715;52.182;21.206;2023-04-24T02:26:39;10.13;;;5.97;;
36745;SDS011;22715;52.182;21.206;2023-04-24T02:29:04;8.75;;;6.85;;
36745;SDS011;22715;52.182;21.206;2023-04-24T02:31:30;11.30;;;7.32;;
36745;SDS011;22715;52.182;21.206;2023-04-24T02:33:55;12.80;;;7.07;;
36745;SDS011;22715;52.182;21.206;2023-04-24T02:36:21;6.88;;;5.88;;
36745;SDS011;22715;52.182;21.206;2023-04-24T02:38:46;10.25;;;7.65;;
36745;SDS011;22715;52.182;21.206;2023-04-24T02:41:11;9.10;;;6.53;;
36745;SDS011;22715;52.182;21.206;2023-04-24T02:43:37;12.18;;;7.32;;
36745;SDS011;22715;52.182;21.206;2023-04-24T02:46:03;12.93;;;6.38;;
36745;SDS011;22715;52.182;21.206;2023-04-24T02:48:29;8.95;;;6.90;;
36745;SDS011;22715;52.182;21.206;2023-04-24T02:50:54;7.22;;;5.43;;
36745;SDS011;22715;52.182;21.206;2023-04-24T02:56:11;9.35;;;6.03;;
36745;SDS011;22715;52.182;21.206;2023-04-24T03:03:39;16.67;;;6.53;;
36745;SDS011;22715;52.182;21.206;2023-04-24T03:06:05;11.82;;;7.22;;
36745;SDS011;22715;52.182;21.206;2023-04-24T03:11:18;10.35;;;6.85;;
36745;SDS011;22715;52.182;21.206;2023-04-24T03:13:43;10.63;;;6.45;;
36745;SDS011;22715;52.182;21.206;2023-04-24T03:18:37;9.60;;;6.32;;
36745;SDS011;22715;52.182;21.206;2023-04-24T03:21:11;9.07;;;6.40;;
36745;SDS011;22715;52.182;21.206;2023-04-24T03:23:54;12.00;;;7.25;;
36745;SDS011;22715;52.182;21.206;2023-04-24T03:26:20;9.63;;;6.60;;
36745;SDS011;22715;52.182;21.206;2023-04-24T03:28:48;9.95;;;6.32;;
36745;SDS011;22715;52.182;21.206;2023-04-24T03:31:14;10.43;;;6.75;;
36745;SDS011;22715;52.182;21.206;2023-04-24T03:33:40;9.52;;;6.70;;
36745;SDS011;22715;52.182;21.206;2023-04-24T03:36:06;9.45;;;6.88;;
36745;SDS011;22715;52.182;21.206;2023-04-24T03:38:31;11.00;;;6.47;;
36745;SDS011;22715;52.182;21.206;2023-04-24T03:40:57;8.80;;;6.47;;
36745;SDS011;22715;52.182;21.206;2023-04-24T03:43:26;8.50;;;6.28;;
36745;SDS011;22715;52.182;21.206;2023-04-24T03:46:00;9.13;;;6.90;;
36745;SDS011;22715;52.182;21.206;2023-04-24T03:48:27;13.77;;;7.70;;
36745;SDS011;22715;52.182;21.206;2023-04-24T03:50:52;10.23;;;7.22;;
36745;SDS011;22715;52.182;21.206;2023-04-24T03:53:22;14.65;;;7.60;;
36745;SDS011;22715;52.182;21.206;2023-04-24T03:55:55;9.63;;;6.30;;
36745;SDS011;22715;52.182;21.206;2023-04-24T03:58:20;8.93;;;6.25;;
36745;SDS011;22715;52.182;21.206;2023-04-24T04:00:45;12.48;;;7.57;;
36745;SDS011;22715;52.182;21.206;2023-04-24T04:03:13;10.15;;;6.85;;
36745;SDS011;22715;52.182;21.206;2023-04-24T04:11:21;7.70;;;6.43;;
36745;SDS011;22715;52.182;21.206;2023-04-24T04:13:47;10.10;;;6.30;;
36745;SDS011;22715;52.182;21.206;2023-04-24T04:16:13;12.43;;;7.65;;
36745;SDS011;22715;52.182;21.206;2023-04-24T04:21:41;10.45;;;6.72;;
36745;SDS011;22715;52.182;21.206;2023-04-24T04:24:07;11.30;;;6.95;;
36745;SDS011;22715;52.182;21.206;2023-04-24T04:26:32;9.15;;;6.70;;
36745;SDS011;22715;52.182;21.206;2023-04-24T04:29:03;9.48;;;6.93;;
36745;SDS011;22715;52.182;21.206;2023-04-24T04:31:29;8.90;;;6.82;;
36745;SDS011;22715;52.182;21.206;2023-04-24T04:33:55;8.70;;;7.15;;
36745;SDS011;22715;52.182;21.206;2023-04-24T04:36:22;10.55;;;6.05;;
36745;SDS011;22715;52.182;21.206;2023-04-24T04:38:49;9.45;;;6.28;;
36745;SDS011;22715;52.182;21.206;2023-04-24T04:41:15;7.45;;;6.28;;
36745;SDS011;22715;52.182;21.206;2023-04-24T04:43:42;8.30;;;6.43;;
36745;SDS011;22715;52.182;21.206;2023-04-24T04:46:07;10.15;;;6.88;;
36745;SDS011;22715;52.182;21.206;2023-04-24T04:48:35;9.90;;;6.68;;
36745;SDS011;22715;52.182;21.206;2023-04-24T04:51:02;10.95;;;7.00;;
36745;SDS011;22715;52.182;21.206;2023-04-24T04:53:27;11.48;;;7.35;;
36745;SDS011;22715;52.182;21.206;2023-04-24T04:56:00;8.63;;;5.90;;
36745;SDS011;22715;52.182;21.206;2023-04-24T04:58:28;10.45;;;7.13;;
36745;SDS011;22715;52.182;21.206;2023-04-24T05:00:53;9.68;;;6.95;;
36745;SDS011;22715;52.182;21.206;2023-04-24T05:03:18;8.65;;;6.35;;
36745;SDS011;22715;52.182;21.206;2023-04-24T05:05:58;10.57;;;7.07;;
36745;SDS011;22715;52.182;21.206;2023-04-24T05:14:30;13.70;;;6.13;;
36745;SDS011;22715;52.182;21.206;2023-04-24T05:22:29;9.02;;;7.05;;
36745;SDS011;22715;52.182;21.206;2023-04-24T05:24:55;14.90;;;7.93;;
36745;SDS011;22715;52.182;21.206;2023-04-24T05:27:21;11.77;;;7.38;;
36745;SDS011;22715;52.182;21.206;2023-04-24T05:29:47;14.80;;;7.82;;
36745;SDS011;22715;52.182;21.206;2023-04-24T05:32:12;8.15;;;5.78;;
36745;SDS011;22715;52.182;21.206;2023-04-24T05:34:39;10.50;;;7.05;;
36745;SDS011;22715;52.182;21.206;2023-04-24T05:37:11;10.07;;;7.35;;
36745;SDS011;22715;52.182;21.206;2023-04-24T05:39:46;10.10;;;6.90;;
36745;SDS011;22715;52.182;21.206;2023-04-24T05:42:12;8.68;;;6.78;;
36745;SDS011;22715;52.182;21.206;2023-04-24T05:44:37;10.32;;;6.30;;
36745;SDS011;22715;52.182;21.206;2023-04-24T05:47:02;11.60;;;8.23;;
36745;SDS011;22715;52.182;21.206;2023-04-24T05:49:30;12.00;;;6.93;;
36745;SDS011;22715;52.182;21.206;2023-04-24T05:55:02;10.48;;;8.18;;
36745;SDS011;22715;52.182;21.206;2023-04-24T05:57:39;12.45;;;7.60;;
36745;SDS011;22715;52.182;21.206;2023-04-24T06:00:09;10.07;;;6.90;;
36745;SDS011;22715;52.182;21.206;2023-04-24T06:05:06;10.07;;;7.15;;
36745;SDS011;22715;52.182;21.206;2023-04-24T06:07:33;10.50;;;7.13;;
36745;SDS011;22715;52.182;21.206;2023-04-24T06:10:00;13.52;;;8.75;;
36745;SDS011;22715;52.182;21.206;2023-04-24T06:12:25;14.00;;;7.45;;
36745;SDS011;22715;52.182;21.206;2023-04-24T06:14:51;10.45;;;7.07;;
36745;SDS011;22715;52.182;21.206;2023-04-24T06:17:16;12.55;;;7.85;;
36745;SDS011;22715;52.182;21.206;2023-04-24T06:19:42;10.70;;;7.10;;
36745;SDS011;22715;52.182;21.206;2023-04-24T06:22:07;8.45;;;6.75;;
36745;SDS011;22715;52.182;21.206;2023-04-24T06:24:33;10.27;;;5.97;;
36745;SDS011;22715;52.182;21.206;2023-04-24T06:26:59;9.30;;;7.18;;
36745;SDS011;22715;52.182;21.206;2023-04-24T06:29:25;6.65;;;5.47;;
36745;SDS011;22715;52.182;21.206;2023-04-24T06:31:50;8.82;;;5.32;;
36745;SDS011;22715;52.182;21.206;2023-04-24T06:34:16;8.60;;;5.57;;
36745;SDS011;22715;52.182;21.206;2023-04-24T06:36:41;7.43;;;6.32;;
36745;SDS011;22715;52.182;21.206;2023-04-24T06:39:07;8.20;;;6.10;;
36745;SDS011;22715;52.182;21.206;2023-04-24T06:44:01;6.78;;;5.03;;
36745;SDS011;22715;52.182;21.206;2023-04-24T06:46:27;6.97;;;5.57;;
36745;SDS011;22715;52.182;21.206;2023-04-24T06:48:53;7.82;;;5.63;;
36745;SDS011;22715;52.182;21.206;2023-04-24T06:51:21;8.60;;;5.88;;
36745;SDS011;22715;52.182;21.206;2023-04-24T06:53:46;7.90;;;5.47;;
36745;SDS011;22715;52.182;21.206;2023-04-24T06:56:12;8.98;;;5.40;;
36745;SDS011;22715;52.182;21.206;2023-04-24T06:58:37;5.40;;;4.57;;
36745;SDS011;22715;52.182;21.206;2023-04-24T07:01:03;9.48;;;5.13;;
36745;SDS011;22715;52.182;21.206;2023-04-24T07:03:28;8.82;;;5.72;;
36745;SDS011;22715;52.182;21.206;2023-04-24T07:06:03;6.25;;;5.07;;
36745;SDS011;22715;52.182;21.206;2023-04-24T07:13:41;7.18;;;5.30;;
36745;SDS011;22715;52.182;21.206;2023-04-24T07:16:12;8.57;;;5.30;;
36745;SDS011;22715;52.182;21.206;2023-04-24T07:18:39;7.55;;;5.13;;
36745;SDS011;22715;52.182;21.206;2023-04-24T07:21:09;9.48;;;5.57;;
36745;SDS011;22715;52.182;21.206;2023-04-24T07:23:43;8.88;;;4.95;;
36745;SDS011;22715;52.182;21.206;2023-04-24T07:28:39;7.78;;;4.55;;
36745;SDS011;22715;52.182;21.206;2023-04-24T07:31:16;6.85;;;5.35;;
36745;SDS011;22715;52.182;21.206;2023-04-24T07:33:44;7.07;;;4.90;;
36745;SDS011;22715;52.182;21.206;2023-04-24T07:36:10;5.53;;;4.72;;
36745;SDS011;22715;52.182;21.206;2023-04-24T07:38:42;9.23;;;5.65;;
36745;SDS011;22715;52.182;21.206;2023-04-24T07:41:08;6.25;;;5.25;;
36745;SDS011;22715;52.182;21.206;2023-04-24T07:43:33;6.13;;;5.40;;
36745;SDS011;22715;52.182;21.206;2023-04-24T07:45:59;12.32;;;5.82;;
36745;SDS011;22715;52.182;21.206;2023-04-24T07:53:41;7.53;;;6.03;;
36745;SDS011;22715;52.182;21.206;2023-04-24T07:58:56;6.68;;;5.90;;
36745;SDS011;22715;52.182;21.206;2023-04-24T08:04:18;7.78;;;4.68;;
36745;SDS011;22715;52.182;21.206;2023-04-24T08:06:43;5.85;;;5.00;;
36745;SDS011;22715;52.182;21.206;2023-04-24T08:09:08;6.90;;;5.07;;
36745;SDS011;22715;52.182;21.206;2023-04-24T08:11:43;5.22;;;4.35;;
36745;SDS011;22715;52.182;21.206;2023-04-24T08:16:45;5.47;;;3.95;;
36745;SDS011;22715;52.182;21.206;2023-04-24T08:19:10;6.15;;;4.72;;
36745;SDS011;22715;52.182;21.206;2023-04-24T08:21:35;6.57;;;4.38;;
36745;SDS011;22715;52.182;21.206;2023-04-24T08:24:13;8.68;;;4.30;;
36745;SDS011;22715;52.182;21.206;2023-04-24T08:26:41;5.28;;;4.75;;
36745;SDS011;22715;52.182;21.206;2023-04-24T08:29:08;7.25;;;5.18;;
36745;SDS011;22715;52.182;21.206;2023-04-24T08:34:10;7.93;;;4.25;;
36745;SDS011;22715;52.182;21.206;2023-04-24T08:36:38;9.07;;;4.63;;
36745;SDS011;22715;52.182;21.206;2023-04-24T08:39:14;7.70;;;5.57;;
36745;SDS011;22715;52.182;21.206;2023-04-24T08:41:44;5.90;;;5.30;;
36745;SDS011;22715;52.182;21.206;2023-04-24T08:44:14;8.63;;;5.03;;
36745;SDS011;22715;52.182;21.206;2023-04-24T08:49:06;6.63;;;5.60;;
36745;SDS011;22715;52.182;21.206;2023-04-24T08:51:50;6.10;;;4.75;;
36745;SDS011;22715;52.182;21.206;2023-04-24T08:54:15;12.45;;;5.72;;
36745;SDS011;22715;52.182;21.206;2023-04-24T08:56:42;9.55;;;6.15;;
36745;SDS011;22715;52.182;21.206;2023-04-24T08:59:08;8.18;;;5.50;;
36745;SDS011;22715;52.182;21.206;2023-04-24T09:01:34;9.07;;;5.45;;
36745;SDS011;22715;52.182;21.206;2023-04-24T09:04:01;8.02;;;6.38;;
36745;SDS011;22715;52.182;21.206;2023-04-24T09:06:30;9.68;;;5.47;;
36745;SDS011;22715;52.182;21.206;2023-04-24T09:09:02;9.25;;;6.25;;
36745;SDS011;22715;52.182;21.206;2023-04-24T09:11:31;6.25;;;5.15;;
36745;SDS011;22715;52.182;21.206;2023-04-24T09:14:09;10.50;;;5.90;;
36745;SDS011;22715;52.182;21.206;2023-04-24T09:16:35;12.43;;;6.38;;
36745;SDS011;22715;52.182;21.206;2023-04-24T09:19:00;7.53;;;5.93;;
36745;SDS011;22715;52.182;21.206;2023-04-24T09:21:27;6.18;;;5.50;;
36745;SDS011;22715;52.182;21.206;2023-04-24T09:24:08;6.10;;;4.57;;
36745;SDS011;22715;52.182;21.206;2023-04-24T09:26:41;8.38;;;5.90;;
36745;SDS011;22715;52.182;21.206;2023-04-24T09:29:06;6.65;;;6.05;;
36745;SDS011;22715;52.182;21.206;2023-04-24T09:31:32;6.85;;;4.75;;
36745;SDS011;22715;52.182;21.206;2023-04-24T09:33:59;6.38;;;5.13;;
36745;SDS011;22715;52.182;21.206;2023-04-24T09:36:29;7.97;;;4.00;;
36745;SDS011;22715;52.182;21.206;2023-04-24T09:44:20;8.80;;;5.43;;
36745;SDS011;22715;52.182;21.206;2023-04-24T09:46:49;6.53;;;5.10;;
36745;SDS011;22715;52.182;21.206;2023-04-24T09:49:15;6.30;;;5.10;;
36745;SDS011;22715;52.182;21.206;2023-04-24T09:51:41;7.00;;;5.30;;
36745;SDS011;22715;52.182;21.206;2023-04-24T09:54:13;8.80;;;5.00;;
36745;SDS011;22715;52.182;21.206;2023-04-24T09:56:41;6.30;;;5.35;;
36745;SDS011;22715;52.182;21.206;2023-04-24T09:59:07;9.65;;;5.57;;
36745;SDS011;22715;52.182;21.206;2023-04-24T10:01:33;7.22;;;5.60;;
36745;SDS011;22715;52.182;21.206;2023-04-24T10:03:58;8.13;;;5.30;;
36745;SDS011;22715;52.182;21.206;2023-04-24T10:06:29;7.03;;;5.70;;
36745;SDS011;22715;52.182;21.206;2023-04-24T10:08:55;6.07;;;4.80;;
36745;SDS011;22715;52.182;21.206;2023-04-24T10:11:23;6.10;;;5.38;;
36745;SDS011;22715;52.182;21.206;2023-04-24T10:13:52;8.95;;;5.03;;
36745;SDS011;22715;52.182;21.206;2023-04-24T10:16:17;6.80;;;4.85;;
36745;SDS011;22715;52.182;21.206;2023-04-24T10:21:17;10.52;;;5.55;;
36745;SDS011;22715;52.182;21.206;2023-04-24T10:23:42;8.02;;;6.07;;
36745;SDS011;22715;52.182;21.206;2023-04-24T10:26:14;6.72;;;4.47;;
36745;SDS011;22715;52.182;21.206;2023-04-24T10:28:48;6.57;;;4.78;;
36745;SDS011;22715;52.182;21.206;2023-04-24T10:31:13;7.55;;;4.32;;
36745;SDS011;22715;52.182;21.206;2023-04-24T10:33:42;8.38;;;4.60;;
36745;SDS011;22715;52.182;21.206;2023-04-24T10:36:10;5.85;;;3.75;;
36745;SDS011;22715;52.182;21.206;2023-04-24T10:38:46;8.35;;;4.65;;
36745;SDS011;22715;52.182;21.206;2023-04-24T10:41:50;5.53;;;3.80;;
36745;SDS011;22715;52.182;21.206;2023-04-24T10:44:19;6.57;;;4.63;;
36745;SDS011;22715;52.182;21.206;2023-04-24T10:46:53;5.22;;;4.53;;
36745;SDS011;22715;52.182;21.206;2023-04-24T10:49:19;6.40;;;4.20;;
36745;SDS011;22715;52.182;21.206;2023-04-24T10:51:53;5.97;;;4.88;;
36745;SDS011;22715;52.182;21.206;2023-04-24T10:54:22;4.60;;;4.18;;
36745;SDS011;22715;52.182;21.206;2023-04-24T10:56:47;5.40;;;4.30;;
36745;SDS011;22715;52.182;21.206;2023-04-24T10:59:13;6.00;;;4.28;;
36745;SDS011;22715;52.182;21.206;2023-04-24T11:01:52;5.88;;;4.05;;
36745;SDS011;22715;52.182;21.206;2023-04-24T11:04:21;4.83;;;4.27;;
36745;SDS011;22715;52.182;21.206;2023-04-24T11:06:54;6.90;;;4.78;;
36745;SDS011;22715;52.182;21.206;2023-04-24T11:09:19;4.65;;;4.05;;
36745;SDS011;22715;52.182;21.206;2023-04-24T11:11:46;4.53;;;3.95;;
36745;SDS011;22715;52.182;21.206;2023-04-24T11:14:14;7.78;;;4.78;;
36745;SDS011;22715;52.182;21.206;2023-04-24T11:16:52;3.88;;;3.33;;
36745;SDS011;22715;52.182;21.206;2023-04-24T11:19:19;5.82;;;3.60;;
36745;SDS011;22715;52.182;21.206;2023-04-24T11:21:53;6.00;;;3.67;;
36745;SDS011;22715;52.182;21.206;2023-04-24T11:29:46;4.20;;;3.83;;
36745;SDS011;22715;52.182;21.206;2023-04-24T11:32:15;6.70;;;4.22;;
36745;SDS011;22715;52.182;21.206;2023-04-24T11:37:17;6.97;;;4.72;;
36745;SDS011;22715;52.182;21.206;2023-04-24T11:39:42;4.90;;;3.50;;
36745;SDS011;22715;52.182;21.206;2023-04-24T11:42:13;4.80;;;4.07;;
36745;SDS011;22715;52.182;21.206;2023-04-24T11:44:39;5.70;;;4.03;;
36745;SDS011;22715;52.182;21.206;2023-04-24T11:47:05;6.32;;;4.10;;
36745;SDS011;22715;52.182;21.206;2023-04-24T11:49:30;4.30;;;3.65;;
36745;SDS011;22715;52.182;21.206;2023-04-24T11:51:56;7.95;;;4.60;;
36745;SDS011;22715;52.182;21.206;2023-04-24T11:54:21;4.55;;;4.00;;
36745;SDS011;22715;52.182;21.206;2023-04-24T11:56:47;6.18;;;4.03;;
36745;SDS011;22715;52.182;21.206;2023-04-24T11:59:15;6.82;;;4.32;;
36745;SDS011;22715;52.182;21.206;2023-04-24T12:01:45;5.80;;;3.67;;
36745;SDS011;22715;52.182;21.206;2023-04-24T12:04:10;4.75;;;4.35;;
36745;SDS011;22715;52.182;21.206;2023-04-24T12:06:39;7.07;;;4.28;;
36745;SDS011;22715;52.182;21.206;2023-04-24T12:09:04;7.25;;;3.90;;
36745;SDS011;22715;52.182;21.206;2023-04-24T12:11:30;4.80;;;3.78;;
36745;SDS011;22715;52.182;21.206;2023-04-24T12:13:56;4.75;;;3.78;;
36745;SDS011;22715;52.182;21.206;2023-04-24T12:16:21;6.40;;;4.90;;
36745;SDS011;22715;52.182;21.206;2023-04-24T12:18:52;5.45;;;3.95;;
36745;SDS011;22715;52.182;21.206;2023-04-24T12:21:21;5.57;;;4.55;;
36745;SDS011;22715;52.182;21.206;2023-04-24T12:23:55;5.47;;;4.93;;
36745;SDS011;22715;52.182;21.206;2023-04-24T12:26:21;5.13;;;4.15;;
36745;SDS011;22715;52.182;21.206;2023-04-24T12:28:48;5.68;;;3.75;;
36745;SDS011;22715;52.182;21.206;2023-04-24T12:31:25;5.45;;;3.78;;
36745;SDS011;22715;52.182;21.206;2023-04-24T12:33:56;4.90;;;3.30;;
36745;SDS011;22715;52.182;21.206;2023-04-24T12:36:21;3.55;;;2.95;;
36745;SDS011;22715;52.182;21.206;2023-04-24T12:38:52;7.50;;;3.50;;
36745;SDS011;22715;52.182;21.206;2023-04-24T12:41:17;5.88;;;3.60;;
36745;SDS011;22715;52.182;21.206;2023-04-24T12:43:53;8.63;;;3.53;;
36745;SDS011;22715;52.182;21.206;2023-04-24T12:46:23;6.45;;;3.22;;
36745;SDS011;22715;52.182;21.206;2023-04-24T12:48:53;6.93;;;3.70;;
36745;SDS011;22715;52.182;21.206;2023-04-24T12:56:30;7.90;;;3.03;;
36745;SDS011;22715;52.182;21.206;2023-04-24T12:58:56;6.35;;;3.60;;
36745;SDS011;22715;52.182;21.206;2023-04-24T13:01:21;5.15;;;2.63;;
36745;SDS011;22715;52.182;21.206;2023-04-24T13:03:46;4.65;;;2.42;;
36745;SDS011;22715;52.182;21.206;2023-04-24T13:06:14;6.72;;;2.90;;
36745;SDS011;22715;52.182;21.206;2023-04-24T13:11:16;4.53;;;3.17;;
36745;SDS011;22715;52.182;21.206;2023-04-24T13:13:47;4.53;;;3.35;;
36745;SDS011;22715;52.182;21.206;2023-04-24T13:16:12;3.88;;;2.80;;
36745;SDS011;22715;52.182;21.206;2023-04-24T13:18:38;10.30;;;3.53;;
36745;SDS011;22715;52.182;21.206;2023-04-24T13:21:04;3.05;;;2.65;;
36745;SDS011;22715;52.182;21.206;2023-04-24T13:23:30;4.68;;;3.65;;
36745;SDS011;22715;52.182;21.206;2023-04-24T13:25:55;4.30;;;3.00;;
36745;SDS011;22715;52.182;21.206;2023-04-24T13:28:23;6.68;;;3.08;;
36745;SDS011;22715;52.182;21.206;2023-04-24T13:30:49;5.72;;;3.15;;
36745;SDS011;22715;52.182;21.206;2023-04-24T13:33:15;6.07;;;3.00;;
36745;SDS011;22715;52.182;21.206;2023-04-24T13:35:43;69.47;;;11.45;;
36745;SDS011;22715;52.182;21.206;2023-04-24T13:38:08;6.68;;;4.10;;
36745;SDS011;22715;52.182;21.206;2023-04-24T13:40:34;4.63;;;3.10;;
36745;SDS011;22715;52.182;21.206;2023-04-24T13:43:02;3.90;;;3.38;;
36745;SDS011;22715;52.182;21.206;2023-04-24T13:45:28;5.90;;;2.80;;
36745;SDS011;22715;52.182;21.206;2023-04-24T13:47:56;6.65;;;2.78;;
36745;SDS011;22715;52.182;21.206;2023-04-24T13:50:23;3.33;;;2.45;;
36745;SDS011;22715;52.182;21.206;2023-04-24T13:52:58;4.00;;;3.05;;
36745;SDS011;22715;52.182;21.206;2023-04-24T13:55:30;2.70;;;2.10;;
36745;SDS011;22715;52.182;21.206;2023-04-24T13:57:56;3.75;;;2.75;;
36745;SDS011;22715;52.182;21.206;2023-04-24T14:00:24;4.85;;;2.17;;
36745;SDS011;22715;52.182;21.206;2023-04-24T14:02:49;3.40;;;2.38;;
36745;SDS011;22715;52.182;21.206;2023-04-24T14:05:17;2.30;;;1.75;;
36745;SDS011;22715;52.182;21.206;2023-04-24T14:07:43;2.95;;;1.95;;
36745;SDS011;22715;52.182;21.206;2023-04-24T14:10:08;2.17;;;2.08;;
36745;SDS011;22715;52.182;21.206;2023-04-24T14:12:34;1.70;;;1.60;;
36745;SDS011;22715;52.182;21.206;2023-04-24T14:15:03;2.20;;;2.00;;
36745;SDS011;22715;52.182;21.206;2023-04-24T14:17:31;2.90;;;2.05;;
36745;SDS011;22715;52.182;21.206;2023-04-24T14:20:02;2.50;;;2.30;;
36745;SDS011;22715;52.182;21.206;2023-04-24T14:22:29;3.67;;;2.72;;
36745;SDS011;22715;52.182;21.206;2023-04-24T14:24:54;3.33;;;2.28;;
36745;SDS011;22715;52.182;21.206;2023-04-24T14:27:19;3.40;;;2.33;;
36745;SDS011;22715;52.182;21.206;2023-04-24T14:29:48;3.85;;;2.40;;
36745;SDS011;22715;52.182;21.206;2023-04-24T14:32:13;5.93;;;3.13;;
36745;SDS011;22715;52.182;21.206;2023-04-24T14:34:40;3.15;;;2.60;;
36745;SDS011;22715;52.182;21.206;2023-04-24T14:39:35;5.55;;;3.03;;
36745;SDS011;22715;52.182;21.206;2023-04-24T14:42:00;4.00;;;3.05;;
36745;SDS011;22715;52.182;21.206;2023-04-24T14:44:26;3.97;;;3.05;;
36745;SDS011;22715;52.182;21.206;2023-04-24T14:46:54;6.03;;;3.15;;
36745;SDS011;22715;52.182;21.206;2023-04-24T14:49:26;3.33;;;2.75;;
36745;SDS011;22715;52.182;21.206;2023-04-24T14:51:52;3.45;;;2.35;;
36745;SDS011;22715;52.182;21.206;2023-04-24T14:54:17;3.30;;;2.72;;
36745;SDS011;22715;52.182;21.206;2023-04-24T14:56:45;3.85;;;2.92;;
36745;SDS011;22715;52.182;21.206;2023-04-24T14:59:10;4.88;;;2.80;;
36745;SDS011;22715;52.182;21.206;2023-04-24T15:01:35;3.33;;;2.97;;
36745;SDS011;22715;52.182;21.206;2023-04-24T15:04:01;6.07;;;3.00;;
36745;SDS011;22715;52.182;21.206;2023-04-24T15:06:26;3.70;;;3.13;;
36745;SDS011;22715;52.182;21.206;2023-04-24T15:08:51;5.20;;;3.05;;
36745;SDS011;22715;52.182;21.206;2023-04-24T15:11:17;3.53;;;2.83;;
36745;SDS011;22715;52.182;21.206;2023-04-24T15:13:42;2.97;;;2.47;;
36745;SDS011;22715;52.182;21.206;2023-04-24T15:16:11;5.07;;;3.33;;
36745;SDS011;22715;52.182;21.206;2023-04-24T15:18:37;3.42;;;2.92;;
36745;SDS011;22715;52.182;21.206;2023-04-24T15:21:02;4.47;;;3.08;;
36745;SDS011;22715;52.182;21.206;2023-04-24T15:23:28;3.63;;;2.80;;
36745;SDS011;22715;52.182;21.206;2023-04-24T15:25:53;5.57;;;2.85;;
36745;SDS011;22715;52.182;21.206;2023-04-24T15:28:19;5.13;;;2.83;;
36745;SDS011;22715;52.182;21.206;2023-04-24T15:30:44;2.80;;;2.38;;
36745;SDS011;22715;52.182;21.206;2023-04-24T15:33:10;5.00;;;2.85;;
36745;SDS011;22715;52.182;21.206;2023-04-24T15:35:35;9.18;;;3.10;;
36745;SDS011;22715;52.182;21.206;2023-04-24T15:38:04;3.67;;;3.00;;
36745;SDS011;22715;52.182;21.206;2023-04-24T15:40:29;6.20;;;2.60;;
36745;SDS011;22715;52.182;21.206;2023-04-24T15:45:26;5.18;;;3.13;;
36745;SDS011;22715;52.182;21.206;2023-04-24T15:48:01;5.28;;;3.58;;
36745;SDS011;22715;52.182;21.206;2023-04-24T15:50:28;7.40;;;3.60;;
36745;SDS011;22715;52.182;21.206;2023-04-24T15:52:54;3.47;;;2.78;;
36745;SDS011;22715;52.182;21.206;2023-04-24T15:55:20;6.57;;;3.22;;
36745;SDS011;22715;52.182;21.206;2023-04-24T15:57:45;6.85;;;2.78;;
36745;SDS011;22715;52.182;21.206;2023-04-24T16:02:42;5.35;;;2.47;;
36745;SDS011;22715;52.182;21.206;2023-04-24T16:05:12;4.20;;;2.30;;
36745;SDS011;22715;52.182;21.206;2023-04-24T16:10:04;4.07;;;2.83;;
36745;SDS011;22715;52.182;21.206;2023-04-24T16:12:29;5.68;;;3.33;;
36745;SDS011;22715;52.182;21.206;2023-04-24T16:14:55;5.45;;;3.45;;
36745;SDS011;22715;52.182;21.206;2023-04-24T16:17:20;6.38;;;3.10;;
36745;SDS011;22715;52.182;21.206;2023-04-24T16:19:45;2.67;;;2.47;;
36745;SDS011;22715;52.182;21.206;2023-04-24T16:22:11;4.07;;;3.67;;
36745;SDS011;22715;52.182;21.206;2023-04-24T16:24:36;6.25;;;2.80;;
36745;SDS011;22715;52.182;21.206;2023-04-24T16:27:04;4.38;;;2.85;;
36745;SDS011;22715;52.182;21.206;2023-04-24T16:29:30;3.67;;;3.25;;